sensor_id;sensor_type;location;lat;lon;timestamp;P1;durP1;ratioP1;P2;durP2;ratioP2
4812;SDS011;2420;51.202;8.698;2023-11-19T00:01:17;2.40;;;1.80;;
4812;SDS011;2420;51.202;8.698;2023-11-19T00:03:42;2.55;;;2.25;;
4812;SDS011;2420;51.202;8.698;2023-11-19T00:06:09;2.17;;;1.83;;
4812;SDS011;2420;51.202;8.698;2023-11-19T00:08:36;2.80;;;1.77;;
4812;SDS011;2420;51.202;8.698;2023-11-19T00:11:01;2.00;;;1.80;;
4812;SDS011;2420;51.202;8.698;2023-11-19T00:13:28;2.13;;;1.73;;
4812;SDS011;2420;51.202;8.698;2023-11-19T00:15:53;2.60;;;1.95;;
4812;SDS011;2420;51.202;8.698;2023-11-19T00:18:19;2.33;;;1.88;;
4812;SDS011;2420;51.202;8.698;2023-11-19T00:20:44;3.03;;;2.05;;
4812;SDS011;2420;51.202;8.698;2023-11-19T00:23:10;2.85;;;2.10;;
4812;SDS011;2420;51.202;8.698;2023-11-19T00:25:36;2.65;;;1.67;;
4812;SDS011;2420;51.202;8.698;2023-11-19T00:28:03;3.58;;;2.10;;
4812;SDS011;2420;51.202;8.698;2023-11-19T00:30:29;2.72;;;2.13;;
4812;SDS011;2420;51.202;8.698;2023-11-19T00:32:56;2.60;;;2.20;;
4812;SDS011;2420;51.202;8.698;2023-11-19T00:35:21;2.38;;;2.10;;
4812;SDS011;2420;51.202;8.698;2023-11-19T00:37:47;2.70;;;2.08;;
4812;SDS011;2420;51.202;8.698;2023-11-19T00:40:13;2.20;;;2.00;;
4812;SDS011;2420;51.202;8.698;2023-11-19T00:42:40;2.85;;;2.00;;
4812;SDS011;2420;51.202;8.698;2023-11-19T00:45:06;2.35;;;2.08;;
4812;SDS011;2420;51.202;8.698;2023-11-19T00:47:35;2.97;;;1.90;;
4812;SDS011;2420;51.202;8.698;2023-11-19T00:50:01;2.10;;;1.65;;
4812;SDS011;2420;51.202;8.698;2023-11-19T00:52:27;2.22;;;1.70;;
4812;SDS011;2420;51.202;8.698;2023-11-19T00:54:53;4.07;;;1.90;;
4812;SDS011;2420;51.202;8.698;2023-11-19T00:57:18;2.70;;;1.80;;
4812;SDS011;2420;51.202;8.698;2023-11-19T00:59:44;2.47;;;1.77;;
4812;SDS011;2420;51.202;8.698;2023-11-19T01:02:10;2.55;;;1.90;;
4812;SDS011;2420;51.202;8.698;2023-11-19T01:04:36;2.13;;;1.73;;
4812;SDS011;2420;51.202;8.698;2023-11-19T01:07:02;2.10;;;1.80;;
4812;SDS011;2420;51.202;8.698;2023-11-19T01:09:29;2.10;;;1.75;;
4812;SDS011;2420;51.202;8.698;2023-11-19T01:11:57;2.10;;;1.70;;
4812;SDS011;2420;51.202;8.698;2023-11-19T01:14:23;2.50;;;2.08;;
4812;SDS011;2420;51.202;8.698;2023-11-19T01:16:48;2.15;;;1.77;;
4812;SDS011;2420;51.202;8.698;2023-11-19T01:19:14;2.20;;;1.90;;
4812;SDS011;2420;51.202;8.698;2023-11-19T01:21:39;2.85;;;2.20;;
4812;SDS011;2420;51.202;8.698;2023-11-19T01:24:05;3.15;;;2.30;;
4812;SDS011;2420;51.202;8.698;2023-11-19T01:26:34;2.80;;;2.30;;
4812;SDS011;2420;51.202;8.698;2023-11-19T01:28:59;3.17;;;2.45;;
4812;SDS011;2420;51.202;8.698;2023-11-19T01:31:26;3.88;;;2.80;;
4812;SDS011;2420;51.202;8.698;2023-11-19T01:33:51;3.70;;;2.90;;
4812;SDS011;2420;51.202;8.698;2023-11-19T01:36:17;4.32;;;2.90;;
4812;SDS011;2420;51.202;8.698;2023-11-19T01:38:42;4.20;;;2.97;;
4812;SDS011;2420;51.202;8.698;2023-11-19T01:41:08;4.03;;;2.80;;
4812;SDS011;2420;51.202;8.698;2023-11-19T01:43:37;4.50;;;2.70;;
4812;SDS011;2420;51.202;8.698;2023-11-19T01:46:07;4.30;;;2.90;;
4812;SDS011;2420;51.202;8.698;2023-11-19T01:48:37;3.47;;;2.70;;
4812;SDS011;2420;51.202;8.698;2023-11-19T01:51:07;3.75;;;2.90;;
4812;SDS011;2420;51.202;8.698;2023-11-19T01:53:34;2.92;;;2.63;;
4812;SDS011;2420;51.202;8.698;2023-11-19T01:56:02;3.42;;;2.63;;
4812;SDS011;2420;51.202;8.698;2023-11-19T01:58:28;2.88;;;2.30;;
4812;SDS011;2420;51.202;8.698;2023-11-19T02:00:55;2.80;;;2.22;;
4812;SDS011;2420;51.202;8.698;2023-11-19T02:03:21;3.00;;;2.47;;
4812;SDS011;2420;51.202;8.698;2023-11-19T02:05:50;2.65;;;2.42;;
4812;SDS011;2420;51.202;8.698;2023-11-19T02:08:18;2.80;;;2.22;;
4812;SDS011;2420;51.202;8.698;2023-11-19T02:10:44;2.50;;;1.95;;
4812;SDS011;2420;51.202;8.698;2023-11-19T02:13:10;3.05;;;2.40;;
4812;SDS011;2420;51.202;8.698;2023-11-19T02:15:38;2.40;;;2.20;;
4812;SDS011;2420;51.202;8.698;2023-11-19T02:18:19;2.42;;;1.92;;
4812;SDS011;2420;51.202;8.698;2023-11-19T02:20:47;2.50;;;2.00;;
4812;SDS011;2420;51.202;8.698;2023-11-19T02:23:16;2.28;;;1.80;;
4812;SDS011;2420;51.202;8.698;2023-11-19T02:25:46;2.33;;;1.90;;
4812;SDS011;2420;51.202;8.698;2023-11-19T02:28:17;1.98;;;1.65;;
4812;SDS011;2420;51.202;8.698;2023-11-19T02:30:43;2.75;;;1.85;;
4812;SDS011;2420;51.202;8.698;2023-11-19T02:33:08;2.05;;;1.85;;
4812;SDS011;2420;51.202;8.698;2023-11-19T02:35:34;2.00;;;1.80;;
4812;SDS011;2420;51.202;8.698;2023-11-19T02:37:59;1.90;;;1.70;;
4812;SDS011;2420;51.202;8.698;2023-11-19T02:40:25;2.83;;;1.98;;
4812;SDS011;2420;51.202;8.698;2023-11-19T02:42:54;2.60;;;2.13;;
4812;SDS011;2420;51.202;8.698;2023-11-19T02:45:21;2.92;;;2.20;;
4812;SDS011;2420;51.202;8.698;2023-11-19T02:47:48;2.40;;;1.90;;
4812;SDS011;2420;51.202;8.698;2023-11-19T02:50:13;1.80;;;1.60;;
4812;SDS011;2420;51.202;8.698;2023-11-19T02:52:43;1.73;;;1.52;;
4812;SDS011;2420;51.202;8.698;2023-11-19T02:55:10;1.70;;;1.30;;
4812;SDS011;2420;51.202;8.698;2023-11-19T02:57:40;1.50;;;1.10;;
4812;SDS011;2420;51.202;8.698;2023-11-19T03:00:16;1.55;;;1.30;;
4812;SDS011;2420;51.202;8.698;2023-11-19T03:02:49;1.38;;;1.20;;
4812;SDS011;2420;51.202;8.698;2023-11-19T03:05:24;1.38;;;1.10;;
4812;SDS011;2420;51.202;8.698;2023-11-19T03:07:51;1.40;;;1.20;;
4812;SDS011;2420;51.202;8.698;2023-11-19T03:10:17;2.38;;;1.40;;
4812;SDS011;2420;51.202;8.698;2023-11-19T03:12:43;2.15;;;1.60;;
4812;SDS011;2420;51.202;8.698;2023-11-19T03:15:10;2.15;;;1.63;;
4812;SDS011;2420;51.202;8.698;2023-11-19T03:17:38;4.10;;;1.95;;
4812;SDS011;2420;51.202;8.698;2023-11-19T03:20:05;2.78;;;2.10;;
4812;SDS011;2420;51.202;8.698;2023-11-19T03:22:32;2.10;;;1.90;;
4812;SDS011;2420;51.202;8.698;2023-11-19T03:24:59;3.25;;;1.90;;
4812;SDS011;2420;51.202;8.698;2023-11-19T03:27:25;1.98;;;1.77;;
4812;SDS011;2420;51.202;8.698;2023-11-19T03:29:50;3.08;;;2.10;;
4812;SDS011;2420;51.202;8.698;2023-11-19T03:32:16;3.00;;;2.20;;
4812;SDS011;2420;51.202;8.698;2023-11-19T03:34:41;2.60;;;2.05;;
4812;SDS011;2420;51.202;8.698;2023-11-19T03:37:07;3.03;;;2.10;;
4812;SDS011;2420;51.202;8.698;2023-11-19T03:39:32;2.00;;;1.80;;
4812;SDS011;2420;51.202;8.698;2023-11-19T03:41:58;2.20;;;1.90;;
4812;SDS011;2420;51.202;8.698;2023-11-19T03:44:23;2.25;;;2.00;;
4812;SDS011;2420;51.202;8.698;2023-11-19T03:46:51;3.05;;;2.20;;
4812;SDS011;2420;51.202;8.698;2023-11-19T03:49:17;3.10;;;2.35;;
4812;SDS011;2420;51.202;8.698;2023-11-19T03:51:42;3.80;;;2.40;;
4812;SDS011;2420;51.202;8.698;2023-11-19T03:54:08;2.75;;;2.30;;
4812;SDS011;2420;51.202;8.698;2023-11-19T03:56:33;2.40;;;2.10;;
4812;SDS011;2420;51.202;8.698;2023-11-19T03:58:59;3.30;;;2.50;;
4812;SDS011;2420;51.202;8.698;2023-11-19T04:01:24;2.90;;;2.30;;
4812;SDS011;2420;51.202;8.698;2023-11-19T04:03:50;3.38;;;2.50;;
4812;SDS011;2420;51.202;8.698;2023-11-19T04:06:15;3.28;;;2.03;;
4812;SDS011;2420;51.202;8.698;2023-11-19T04:08:41;3.50;;;2.88;;
4812;SDS011;2420;51.202;8.698;2023-11-19T04:11:07;3.55;;;2.70;;
4812;SDS011;2420;51.202;8.698;2023-11-19T04:13:33;3.22;;;2.45;;
4812;SDS011;2420;51.202;8.698;2023-11-19T04:15:59;3.05;;;2.35;;
4812;SDS011;2420;51.202;8.698;2023-11-19T04:18:25;2.58;;;2.10;;
4812;SDS011;2420;51.202;8.698;2023-11-19T04:20:50;2.65;;;2.10;;
4812;SDS011;2420;51.202;8.698;2023-11-19T04:23:16;3.67;;;2.20;;
4812;SDS011;2420;51.202;8.698;2023-11-19T04:25:42;2.85;;;2.20;;
4812;SDS011;2420;51.202;8.698;2023-11-19T04:28:08;4.85;;;2.75;;
4812;SDS011;2420;51.202;8.698;2023-11-19T04:30:33;4.20;;;2.88;;
4812;SDS011;2420;51.202;8.698;2023-11-19T04:33:00;5.32;;;4.22;;
4812;SDS011;2420;51.202;8.698;2023-11-19T04:35:26;5.13;;;3.40;;
4812;SDS011;2420;51.202;8.698;2023-11-19T04:37:51;4.32;;;3.20;;
4812;SDS011;2420;51.202;8.698;2023-11-19T04:40:17;5.75;;;3.53;;
4812;SDS011;2420;51.202;8.698;2023-11-19T04:42:47;4.75;;;3.30;;
4812;SDS011;2420;51.202;8.698;2023-11-19T04:45:13;4.97;;;3.03;;
4812;SDS011;2420;51.202;8.698;2023-11-19T04:47:38;7.07;;;2.90;;
4812;SDS011;2420;51.202;8.698;2023-11-19T04:50:04;5.25;;;2.80;;
4812;SDS011;2420;51.202;8.698;2023-11-19T04:52:30;8.18;;;4.20;;
4812;SDS011;2420;51.202;8.698;2023-11-19T04:54:56;11.63;;;4.30;;
4812;SDS011;2420;51.202;8.698;2023-11-19T04:57:22;12.63;;;4.38;;
4812;SDS011;2420;51.202;8.698;2023-11-19T04:59:47;15.13;;;6.78;;
4812;SDS011;2420;51.202;8.698;2023-11-19T05:02:13;16.15;;;6.85;;
4812;SDS011;2420;51.202;8.698;2023-11-19T05:04:43;13.15;;;5.50;;
4812;SDS011;2420;51.202;8.698;2023-11-19T05:07:09;12.55;;;5.47;;
4812;SDS011;2420;51.202;8.698;2023-11-19T05:09:35;10.15;;;4.20;;
4812;SDS011;2420;51.202;8.698;2023-11-19T05:12:00;9.50;;;4.40;;
4812;SDS011;2420;51.202;8.698;2023-11-19T05:14:26;13.02;;;4.45;;
4812;SDS011;2420;51.202;8.698;2023-11-19T05:16:52;6.43;;;3.70;;
4812;SDS011;2420;51.202;8.698;2023-11-19T05:19:18;9.32;;;3.92;;
4812;SDS011;2420;51.202;8.698;2023-11-19T05:21:44;8.00;;;3.90;;
4812;SDS011;2420;51.202;8.698;2023-11-19T05:24:09;7.38;;;3.67;;
4812;SDS011;2420;51.202;8.698;2023-11-19T05:26:36;8.73;;;4.00;;
4812;SDS011;2420;51.202;8.698;2023-11-19T05:29:03;8.05;;;3.50;;
4812;SDS011;2420;51.202;8.698;2023-11-19T05:31:29;12.40;;;4.03;;
4812;SDS011;2420;51.202;8.698;2023-11-19T05:33:55;7.30;;;3.42;;
4812;SDS011;2420;51.202;8.698;2023-11-19T05:36:20;11.98;;;3.50;;
4812;SDS011;2420;51.202;8.698;2023-11-19T05:38:46;13.02;;;4.13;;
4812;SDS011;2420;51.202;8.698;2023-11-19T05:41:12;13.77;;;4.22;;
4812;SDS011;2420;51.202;8.698;2023-11-19T05:43:37;13.07;;;4.18;;
4812;SDS011;2420;51.202;8.698;2023-11-19T05:46:05;11.95;;;4.20;;
4812;SDS011;2420;51.202;8.698;2023-11-19T05:48:31;12.68;;;4.47;;
4812;SDS011;2420;51.202;8.698;2023-11-19T05:50:57;12.15;;;4.18;;
4812;SDS011;2420;51.202;8.698;2023-11-19T05:53:23;10.10;;;3.70;;
4812;SDS011;2420;51.202;8.698;2023-11-19T05:55:48;7.30;;;4.05;;
4812;SDS011;2420;51.202;8.698;2023-11-19T05:58:19;8.93;;;3.83;;
4812;SDS011;2420;51.202;8.698;2023-11-19T06:00:54;9.07;;;3.45;;
4812;SDS011;2420;51.202;8.698;2023-11-19T06:03:20;9.45;;;3.33;;
4812;SDS011;2420;51.202;8.698;2023-11-19T06:05:46;10.23;;;3.03;;
4812;SDS011;2420;51.202;8.698;2023-11-19T06:08:12;9.90;;;3.08;;
4812;SDS011;2420;51.202;8.698;2023-11-19T06:10:40;7.55;;;3.30;;
4812;SDS011;2420;51.202;8.698;2023-11-19T06:13:05;9.75;;;3.22;;
4812;SDS011;2420;51.202;8.698;2023-11-19T06:15:31;10.27;;;3.40;;
4812;SDS011;2420;51.202;8.698;2023-11-19T06:17:58;10.57;;;3.13;;
4812;SDS011;2420;51.202;8.698;2023-11-19T06:20:26;9.02;;;2.95;;
4812;SDS011;2420;51.202;8.698;2023-11-19T06:22:54;12.32;;;3.70;;
4812;SDS011;2420;51.202;8.698;2023-11-19T06:25:19;12.52;;;3.03;;
4812;SDS011;2420;51.202;8.698;2023-11-19T06:27:45;10.38;;;3.45;;
4812;SDS011;2420;51.202;8.698;2023-11-19T06:30:11;9.68;;;3.20;;
4812;SDS011;2420;51.202;8.698;2023-11-19T06:32:36;9.88;;;3.15;;
4812;SDS011;2420;51.202;8.698;2023-11-19T06:35:02;11.82;;;3.67;;
4812;SDS011;2420;51.202;8.698;2023-11-19T06:37:29;14.27;;;3.47;;
4812;SDS011;2420;51.202;8.698;2023-11-19T06:39:55;8.85;;;3.10;;
4812;SDS011;2420;51.202;8.698;2023-11-19T06:42:21;10.18;;;2.97;;
4812;SDS011;2420;51.202;8.698;2023-11-19T06:44:46;8.45;;;2.90;;
4812;SDS011;2420;51.202;8.698;2023-11-19T06:47:12;12.30;;;3.20;;
4812;SDS011;2420;51.202;8.698;2023-11-19T06:49:37;11.88;;;3.58;;
4812;SDS011;2420;51.202;8.698;2023-11-19T06:52:03;9.30;;;2.78;;
4812;SDS011;2420;51.202;8.698;2023-11-19T06:54:29;12.10;;;3.45;;
4812;SDS011;2420;51.202;8.698;2023-11-19T06:56:55;15.02;;;3.38;;
4812;SDS011;2420;51.202;8.698;2023-11-19T06:59:22;10.20;;;3.42;;
4812;SDS011;2420;51.202;8.698;2023-11-19T07:01:48;16.00;;;3.72;;
4812;SDS011;2420;51.202;8.698;2023-11-19T07:04:13;11.00;;;3.60;;
4812;SDS011;2420;51.202;8.698;2023-11-19T07:06:39;8.80;;;3.45;;
4812;SDS011;2420;51.202;8.698;2023-11-19T07:09:08;10.23;;;3.17;;
4812;SDS011;2420;51.202;8.698;2023-11-19T07:11:40;9.65;;;3.67;;
4812;SDS011;2420;51.202;8.698;2023-11-19T07:14:07;11.52;;;3.30;;
4812;SDS011;2420;51.202;8.698;2023-11-19T07:16:33;11.07;;;3.50;;
4812;SDS011;2420;51.202;8.698;2023-11-19T07:19:03;10.68;;;3.47;;
4812;SDS011;2420;51.202;8.698;2023-11-19T07:21:30;13.05;;;3.33;;
4812;SDS011;2420;51.202;8.698;2023-11-19T07:23:55;11.32;;;3.10;;
4812;SDS011;2420;51.202;8.698;2023-11-19T07:26:22;12.27;;;3.55;;
4812;SDS011;2420;51.202;8.698;2023-11-19T07:28:48;13.00;;;3.97;;
4812;SDS011;2420;51.202;8.698;2023-11-19T07:31:14;13.82;;;3.10;;
4812;SDS011;2420;51.202;8.698;2023-11-19T07:33:40;12.20;;;3.47;;
4812;SDS011;2420;51.202;8.698;2023-11-19T07:36:09;14.32;;;3.72;;
4812;SDS011;2420;51.202;8.698;2023-11-19T07:38:35;14.02;;;3.95;;
4812;SDS011;2420;51.202;8.698;2023-11-19T07:41:01;16.83;;;4.28;;
4812;SDS011;2420;51.202;8.698;2023-11-19T07:43:27;15.40;;;3.80;;
4812;SDS011;2420;51.202;8.698;2023-11-19T07:45:53;13.48;;;3.10;;
4812;SDS011;2420;51.202;8.698;2023-11-19T07:48:18;14.77;;;4.13;;
4812;SDS011;2420;51.202;8.698;2023-11-19T07:50:51;14.05;;;3.65;;
4812;SDS011;2420;51.202;8.698;2023-11-19T07:53:17;11.55;;;3.45;;
4812;SDS011;2420;51.202;8.698;2023-11-19T07:55:43;17.15;;;3.50;;
4812;SDS011;2420;51.202;8.698;2023-11-19T07:58:09;14.25;;;3.47;;
4812;SDS011;2420;51.202;8.698;2023-11-19T08:00:35;12.95;;;3.90;;
4812;SDS011;2420;51.202;8.698;2023-11-19T08:03:02;15.57;;;3.60;;
4812;SDS011;2420;51.202;8.698;2023-11-19T08:05:28;17.25;;;3.35;;
4812;SDS011;2420;51.202;8.698;2023-11-19T08:07:53;12.13;;;3.03;;
4812;SDS011;2420;51.202;8.698;2023-11-19T08:10:19;14.18;;;3.13;;
4812;SDS011;2420;51.202;8.698;2023-11-19T08:12:45;19.25;;;3.63;;
4812;SDS011;2420;51.202;8.698;2023-11-19T08:15:10;12.82;;;3.22;;
4812;SDS011;2420;51.202;8.698;2023-11-19T08:17:36;15.23;;;3.00;;
4812;SDS011;2420;51.202;8.698;2023-11-19T08:20:03;7.45;;;2.63;;
4812;SDS011;2420;51.202;8.698;2023-11-19T08:22:30;10.20;;;3.22;;
4812;SDS011;2420;51.202;8.698;2023-11-19T08:24:56;13.35;;;2.88;;
4812;SDS011;2420;51.202;8.698;2023-11-19T08:27:21;13.38;;;2.90;;
4812;SDS011;2420;51.202;8.698;2023-11-19T08:29:53;14.80;;;3.42;;
4812;SDS011;2420;51.202;8.698;2023-11-19T08:32:20;11.25;;;3.58;;
4812;SDS011;2420;51.202;8.698;2023-11-19T08:34:46;13.57;;;3.25;;
4812;SDS011;2420;51.202;8.698;2023-11-19T08:37:11;11.02;;;3.40;;
4812;SDS011;2420;51.202;8.698;2023-11-19T08:39:37;14.77;;;3.13;;
4812;SDS011;2420;51.202;8.698;2023-11-19T08:42:03;15.20;;;3.45;;
4812;SDS011;2420;51.202;8.698;2023-11-19T08:44:29;12.70;;;3.10;;
4812;SDS011;2420;51.202;8.698;2023-11-19T08:46:54;10.48;;;2.88;;
4812;SDS011;2420;51.202;8.698;2023-11-19T08:49:20;12.48;;;3.33;;
4812;SDS011;2420;51.202;8.698;2023-11-19T08:51:46;13.98;;;3.15;;
4812;SDS011;2420;51.202;8.698;2023-11-19T08:54:11;13.27;;;3.15;;
4812;SDS011;2420;51.202;8.698;2023-11-19T08:56:38;9.25;;;3.45;;
4812;SDS011;2420;51.202;8.698;2023-11-19T08:59:04;15.27;;;3.17;;
4812;SDS011;2420;51.202;8.698;2023-11-19T09:01:30;15.38;;;3.00;;
4812;SDS011;2420;51.202;8.698;2023-11-19T09:03:55;9.93;;;2.97;;
4812;SDS011;2420;51.202;8.698;2023-11-19T09:06:21;10.23;;;3.05;;
4812;SDS011;2420;51.202;8.698;2023-11-19T09:08:46;15.02;;;3.30;;
4812;SDS011;2420;51.202;8.698;2023-11-19T09:11:12;14.85;;;3.10;;
4812;SDS011;2420;51.202;8.698;2023-11-19T09:13:37;12.55;;;2.92;;
4812;SDS011;2420;51.202;8.698;2023-11-19T09:16:03;24.02;;;3.17;;
4812;SDS011;2420;51.202;8.698;2023-11-19T09:18:29;15.85;;;3.53;;
4812;SDS011;2420;51.202;8.698;2023-11-19T09:20:55;15.48;;;3.03;;
4812;SDS011;2420;51.202;8.698;2023-11-19T09:23:21;16.70;;;2.95;;
4812;SDS011;2420;51.202;8.698;2023-11-19T09:25:46;13.07;;;2.83;;
4812;SDS011;2420;51.202;8.698;2023-11-19T09:28:12;12.60;;;3.15;;
4812;SDS011;2420;51.202;8.698;2023-11-19T09:30:39;15.50;;;3.90;;
4812;SDS011;2420;51.202;8.698;2023-11-19T09:33:05;13.98;;;3.38;;
4812;SDS011;2420;51.202;8.698;2023-11-19T09:35:31;13.40;;;2.75;;
4812;SDS011;2420;51.202;8.698;2023-11-19T09:37:56;14.18;;;3.13;;
4812;SDS011;2420;51.202;8.698;2023-11-19T09:40:22;11.18;;;3.25;;
4812;SDS011;2420;51.202;8.698;2023-11-19T09:42:48;16.02;;;3.08;;
4812;SDS011;2420;51.202;8.698;2023-11-19T09:45:14;7.82;;;2.70;;
4812;SDS011;2420;51.202;8.698;2023-11-19T09:47:43;12.90;;;3.00;;
4812;SDS011;2420;51.202;8.698;2023-11-19T09:50:14;12.05;;;3.65;;
4812;SDS011;2420;51.202;8.698;2023-11-19T09:52:43;9.45;;;3.08;;
4812;SDS011;2420;51.202;8.698;2023-11-19T09:55:09;14.48;;;3.85;;
4812;SDS011;2420;51.202;8.698;2023-11-19T09:57:35;14.77;;;3.00;;
4812;SDS011;2420;51.202;8.698;2023-11-19T10:00:04;12.98;;;3.50;;
4812;SDS011;2420;51.202;8.698;2023-11-19T10:02:33;13.10;;;3.85;;
4812;SDS011;2420;51.202;8.698;2023-11-19T10:05:02;13.48;;;3.25;;
4812;SDS011;2420;51.202;8.698;2023-11-19T10:07:30;14.00;;;3.22;;
4812;SDS011;2420;51.202;8.698;2023-11-19T10:09:57;17.15;;;3.30;;
4812;SDS011;2420;51.202;8.698;2023-11-19T10:12:26;14.93;;;3.83;;
4812;SDS011;2420;51.202;8.698;2023-11-19T10:14:53;14.05;;;3.67;;
4812;SDS011;2420;51.202;8.698;2023-11-19T10:17:21;13.50;;;3.80;;
4812;SDS011;2420;51.202;8.698;2023-11-19T10:19:46;13.20;;;3.13;;
4812;SDS011;2420;51.202;8.698;2023-11-19T10:22:12;12.25;;;2.85;;
4812;SDS011;2420;51.202;8.698;2023-11-19T10:24:41;20.17;;;4.00;;
4812;SDS011;2420;51.202;8.698;2023-11-19T10:27:07;15.85;;;3.53;;
4812;SDS011;2420;51.202;8.698;2023-11-19T10:29:35;14.35;;;3.15;;
4812;SDS011;2420;51.202;8.698;2023-11-19T10:32:02;17.90;;;3.53;;
4812;SDS011;2420;51.202;8.698;2023-11-19T10:34:28;16.50;;;3.85;;
4812;SDS011;2420;51.202;8.698;2023-11-19T10:36:55;14.57;;;3.95;;
4812;SDS011;2420;51.202;8.698;2023-11-19T10:39:20;12.93;;;3.75;;
4812;SDS011;2420;51.202;8.698;2023-11-19T10:41:46;17.60;;;3.92;;
4812;SDS011;2420;51.202;8.698;2023-11-19T10:44:12;18.40;;;3.83;;
4812;SDS011;2420;51.202;8.698;2023-11-19T10:49:04;17.85;;;3.97;;
4812;SDS011;2420;51.202;8.698;2023-11-19T10:51:29;15.43;;;3.50;;
4812;SDS011;2420;51.202;8.698;2023-11-19T10:53:57;18.85;;;3.67;;
4812;SDS011;2420;51.202;8.698;2023-11-19T10:56:33;16.08;;;4.20;;
4812;SDS011;2420;51.202;8.698;2023-11-19T10:58:59;16.17;;;3.55;;
4812;SDS011;2420;51.202;8.698;2023-11-19T11:01:37;17.60;;;3.83;;
4812;SDS011;2420;51.202;8.698;2023-11-19T11:04:14;13.25;;;2.95;;
4812;SDS011;2420;51.202;8.698;2023-11-19T11:06:47;14.63;;;4.35;;
4812;SDS011;2420;51.202;8.698;2023-11-19T11:09:13;16.02;;;3.13;;
4812;SDS011;2420;51.202;8.698;2023-11-19T11:11:40;15.02;;;3.75;;
4812;SDS011;2420;51.202;8.698;2023-11-19T11:14:08;15.80;;;3.13;;
4812;SDS011;2420;51.202;8.698;2023-11-19T11:16:37;15.07;;;3.60;;
4812;SDS011;2420;51.202;8.698;2023-11-19T11:19:04;13.10;;;3.10;;
4812;SDS011;2420;51.202;8.698;2023-11-19T11:21:30;12.07;;;3.60;;
4812;SDS011;2420;51.202;8.698;2023-11-19T11:29:35;13.85;;;2.90;;
4812;SDS011;2420;51.202;8.698;2023-11-19T11:32:30;13.20;;;3.38;;
4812;SDS011;2420;51.202;8.698;2023-11-19T11:38:02;15.15;;;3.17;;
4812;SDS011;2420;51.202;8.698;2023-11-19T11:40:31;17.15;;;3.55;;
4812;SDS011;2420;51.202;8.698;2023-11-19T11:42:57;13.90;;;3.38;;
4812;SDS011;2420;51.202;8.698;2023-11-19T11:45:36;14.07;;;3.25;;
4812;SDS011;2420;51.202;8.698;2023-11-19T11:48:04;17.98;;;3.90;;
4812;SDS011;2420;51.202;8.698;2023-11-19T11:50:31;17.48;;;3.55;;
4812;SDS011;2420;51.202;8.698;2023-11-19T11:57:56;13.40;;;3.42;;
4812;SDS011;2420;51.202;8.698;2023-11-19T12:00:26;14.20;;;3.33;;
4812;SDS011;2420;51.202;8.698;2023-11-19T12:02:56;16.80;;;3.38;;
4812;SDS011;2420;51.202;8.698;2023-11-19T12:05:22;15.60;;;3.75;;
4812;SDS011;2420;51.202;8.698;2023-11-19T12:07:54;12.45;;;3.15;;
4812;SDS011;2420;51.202;8.698;2023-11-19T12:10:20;17.17;;;3.00;;
4812;SDS011;2420;51.202;8.698;2023-11-19T12:12:47;13.40;;;3.20;;
4812;SDS011;2420;51.202;8.698;2023-11-19T12:15:12;10.52;;;3.10;;
4812;SDS011;2420;51.202;8.698;2023-11-19T12:17:43;16.25;;;3.15;;
4812;SDS011;2420;51.202;8.698;2023-11-19T12:20:14;14.95;;;3.05;;
4812;SDS011;2420;51.202;8.698;2023-11-19T12:22:41;17.42;;;3.03;;
4812;SDS011;2420;51.202;8.698;2023-11-19T12:25:08;11.85;;;3.38;;
4812;SDS011;2420;51.202;8.698;2023-11-19T12:27:36;13.00;;;3.45;;
4812;SDS011;2420;51.202;8.698;2023-11-19T12:30:02;10.93;;;3.17;;
4812;SDS011;2420;51.202;8.698;2023-11-19T12:32:41;9.05;;;3.10;;
4812;SDS011;2420;51.202;8.698;2023-11-19T12:35:09;11.30;;;3.03;;
4812;SDS011;2420;51.202;8.698;2023-11-19T12:37:54;11.40;;;2.95;;
4812;SDS011;2420;51.202;8.698;2023-11-19T12:40:21;12.48;;;3.40;;
4812;SDS011;2420;51.202;8.698;2023-11-19T12:42:51;9.45;;;2.55;;
4812;SDS011;2420;51.202;8.698;2023-11-19T12:45:18;11.25;;;2.92;;
4812;SDS011;2420;51.202;8.698;2023-11-19T12:47:46;14.20;;;3.05;;
4812;SDS011;2420;51.202;8.698;2023-11-19T12:50:16;8.95;;;2.80;;
4812;SDS011;2420;51.202;8.698;2023-11-19T12:52:47;8.52;;;2.63;;
4812;SDS011;2420;51.202;8.698;2023-11-19T12:55:25;17.50;;;2.95;;
4812;SDS011;2420;51.202;8.698;2023-11-19T12:57:52;13.85;;;2.97;;
4812;SDS011;2420;51.202;8.698;2023-11-19T13:00:19;14.90;;;3.80;;
4812;SDS011;2420;51.202;8.698;2023-11-19T13:02:50;11.63;;;3.20;;
4812;SDS011;2420;51.202;8.698;2023-11-19T13:05:30;10.18;;;2.92;;
4812;SDS011;2420;51.202;8.698;2023-11-19T13:08:06;12.60;;;2.90;;
4812;SDS011;2420;51.202;8.698;2023-11-19T13:10:34;11.27;;;3.55;;
4812;SDS011;2420;51.202;8.698;2023-11-19T13:13:16;11.82;;;2.38;;
4812;SDS011;2420;51.202;8.698;2023-11-19T13:15:41;10.13;;;2.75;;
4812;SDS011;2420;51.202;8.698;2023-11-19T13:18:09;10.05;;;2.65;;
4812;SDS011;2420;51.202;8.698;2023-11-19T13:20:35;13.35;;;2.85;;
4812;SDS011;2420;51.202;8.698;2023-11-19T13:23:02;15.07;;;2.85;;
4812;SDS011;2420;51.202;8.698;2023-11-19T13:25:28;8.95;;;2.95;;
4812;SDS011;2420;51.202;8.698;2023-11-19T13:27:55;15.18;;;3.00;;
4812;SDS011;2420;51.202;8.698;2023-11-19T13:30:22;15.95;;;3.20;;
4812;SDS011;2420;51.202;8.698;2023-11-19T13:32:48;12.73;;;3.22;;
4812;SDS011;2420;51.202;8.698;2023-11-19T13:35:15;22.48;;;7.68;;
4812;SDS011;2420;51.202;8.698;2023-11-19T13:37:42;9.93;;;3.47;;
4812;SDS011;2420;51.202;8.698;2023-11-19T13:40:08;15.00;;;2.60;;
4812;SDS011;2420;51.202;8.698;2023-11-19T13:42:43;9.95;;;2.55;;
4812;SDS011;2420;51.202;8.698;2023-11-19T13:45:12;16.27;;;4.55;;
4812;SDS011;2420;51.202;8.698;2023-11-19T13:47:40;15.13;;;3.00;;
4812;SDS011;2420;51.202;8.698;2023-11-19T13:50:13;11.32;;;3.08;;
4812;SDS011;2420;51.202;8.698;2023-11-19T13:52:40;12.98;;;2.92;;
4812;SDS011;2420;51.202;8.698;2023-11-19T13:55:10;12.18;;;3.80;;
4812;SDS011;2420;51.202;8.698;2023-11-19T13:57:36;12.30;;;3.30;;
4812;SDS011;2420;51.202;8.698;2023-11-19T14:00:03;12.02;;;3.45;;
4812;SDS011;2420;51.202;8.698;2023-11-19T14:02:41;13.48;;;3.33;;
4812;SDS011;2420;51.202;8.698;2023-11-19T14:05:08;13.50;;;3.33;;
4812;SDS011;2420;51.202;8.698;2023-11-19T14:07:34;12.68;;;3.08;;
4812;SDS011;2420;51.202;8.698;2023-11-19T14:09:59;14.48;;;3.58;;
4812;SDS011;2420;51.202;8.698;2023-11-19T14:12:25;14.98;;;3.53;;
4812;SDS011;2420;51.202;8.698;2023-11-19T14:14:51;12.40;;;3.70;;
4812;SDS011;2420;51.202;8.698;2023-11-19T14:17:16;12.50;;;2.92;;
4812;SDS011;2420;51.202;8.698;2023-11-19T14:19:43;9.90;;;2.65;;
4812;SDS011;2420;51.202;8.698;2023-11-19T14:22:09;14.93;;;5.15;;
4812;SDS011;2420;51.202;8.698;2023-11-19T14:24:35;12.27;;;4.10;;
4812;SDS011;2420;51.202;8.698;2023-11-19T14:27:01;9.75;;;2.85;;
4812;SDS011;2420;51.202;8.698;2023-11-19T14:29:27;8.63;;;2.80;;
4812;SDS011;2420;51.202;8.698;2023-11-19T14:31:55;8.77;;;2.58;;
4812;SDS011;2420;51.202;8.698;2023-11-19T14:34:22;5.22;;;2.33;;
4812;SDS011;2420;51.202;8.698;2023-11-19T14:36:47;9.20;;;2.28;;
4812;SDS011;2420;51.202;8.698;2023-11-19T14:39:14;8.07;;;2.00;;
4812;SDS011;2420;51.202;8.698;2023-11-19T14:41:39;5.72;;;2.20;;
4812;SDS011;2420;51.202;8.698;2023-11-19T14:44:05;9.95;;;2.63;;
4812;SDS011;2420;51.202;8.698;2023-11-19T14:46:31;7.88;;;2.20;;
4812;SDS011;2420;51.202;8.698;2023-11-19T14:48:56;6.47;;;2.47;;
4812;SDS011;2420;51.202;8.698;2023-11-19T14:51:22;8.20;;;2.72;;
4812;SDS011;2420;51.202;8.698;2023-11-19T14:53:47;7.85;;;3.05;;
4812;SDS011;2420;51.202;8.698;2023-11-19T14:56:13;12.65;;;3.45;;
4812;SDS011;2420;51.202;8.698;2023-11-19T14:58:39;10.20;;;2.72;;
4812;SDS011;2420;51.202;8.698;2023-11-19T15:01:05;10.30;;;3.47;;
4812;SDS011;2420;51.202;8.698;2023-11-19T15:03:32;9.88;;;3.33;;
4812;SDS011;2420;51.202;8.698;2023-11-19T15:05:58;13.43;;;2.88;;
4812;SDS011;2420;51.202;8.698;2023-11-19T15:08:23;13.45;;;3.03;;
4812;SDS011;2420;51.202;8.698;2023-11-19T15:10:49;10.70;;;2.90;;
4812;SDS011;2420;51.202;8.698;2023-11-19T15:13:15;8.73;;;2.55;;
4812;SDS011;2420;51.202;8.698;2023-11-19T15:15:40;12.73;;;2.90;;
4812;SDS011;2420;51.202;8.698;2023-11-19T15:18:07;10.30;;;3.00;;
4812;SDS011;2420;51.202;8.698;2023-11-19T15:20:32;10.32;;;2.92;;
4812;SDS011;2420;51.202;8.698;2023-11-19T15:22:58;12.27;;;3.13;;